Time;durP1;ratioP1;P1;durP2;ratioP2;P2;SDS_P1;SDS_P2;PMS_P1;PMS_P2;Temp;Humidity;BMP_temperature;BMP_pressure;BME280_temperature;BME280_humidity;BME280_pressure;Samples;Min_cycle;Max_cycle;Signal;HPM_P1;HPM_P2
2022/12/26 00:02:01;;;;;;;18.57;9.47;;;;;;;4.17;94.81;101454.10;123474;1102;104245;-78
2022/12/26 00:04:32;;;;;;;17.57;9.33;;;;;;;4.18;94.54;101454.22;123493;1102;104370;-78
2022/12/26 00:07:04;;;;;;;17.17;8.63;;;;;;;4.19;94.60;101455.12;123436;1100;104325;-78
2022/12/26 00:09:35;;;;;;;18.27;8.63;;;;;;;4.17;94.50;101457.59;123425;1102;104258;-79
2022/12/26 00:12:07;;;;;;;16.27;8.43;;;;;;;4.17;95.05;101457.59;123553;1102;104367;-79
2022/12/26 00:14:38;;;;;;;16.07;7.77;;;;;;;4.18;94.75;101453.33;123545;1102;104325;-79
2022/12/26 00:17:10;;;;;;;16.10;7.93;;;;;;;4.17;94.34;101460.20;123381;1102;104481;-78
2022/12/26 00:19:41;;;;;;;17.73;8.63;;;;;;;4.17;94.40;101456.70;123351;1102;104229;-78
2022/12/26 00:22:12;;;;;;;16.80;8.17;;;;;;;4.16;94.67;101458.41;123448;1102;104248;-77
2022/12/26 00:24:43;;;;;;;16.17;8.40;;;;;;;4.14;95.07;101455.69;123357;1102;104296;-78
2022/12/26 00:27:14;;;;;;;16.80;8.23;;;;;;;4.15;94.82;101461.78;123473;1102;104274;-78
2022/12/26 00:29:47;;;;;;;16.90;8.30;;;;;;;4.14;94.01;101462.56;123358;1102;104367;-79
2022/12/26 00:32:18;;;;;;;16.07;7.77;;;;;;;4.14;94.45;101463.48;123320;1102;104367;-78
2022/12/26 00:34:49;;;;;;;16.57;7.70;;;;;;;4.13;94.48;101463.37;123524;1102;104274;-78
2022/12/26 00:37:21;;;;;;;17.27;8.20;;;;;;;4.11;94.18;101458.05;123398;1102;104360;-78
2022/12/26 00:39:52;;;;;;;15.13;7.40;;;;;;;4.11;93.78;101452.86;123313;1102;104310;-77
2022/12/26 00:42:23;;;;;;;14.13;7.00;;;;;;;4.09;93.98;101451.81;123388;1102;117788;-79
2022/12/26 00:44:54;;;;;;;15.40;7.37;;;;;;;4.09;94.32;101453.52;123392;1102;104342;-79
2022/12/26 00:47:26;;;;;;;15.97;7.60;;;;;;;4.08;93.98;101451.69;123513;1102;104258;-78
2022/12/26 00:49:57;;;;;;;16.40;7.37;;;;;;;4.06;93.67;101445.48;123489;1102;104323;-78
2022/12/26 00:52:28;;;;;;;15.03;7.10;;;;;;;4.03;93.67;101453.94;123424;1102;104690;-78
2022/12/26 00:54:59;;;;;;;14.30;7.17;;;;;;;4.03;93.94;101440.05;123424;1102;104335;-78
2022/12/26 00:57:30;;;;;;;14.70;7.00;;;;;;;4.00;93.43;101434.63;123364;1102;104316;-78
2022/12/26 01:00:02;;;;;;;14.50;7.20;;;;;;;3.98;93.32;101426.72;123326;1102;104290;-78
2022/12/26 01:02:39;;;;;;;13.77;6.97;;;;;;;3.98;93.28;101433.61;123309;1102;104284;-78
2022/12/26 01:05:13;;;;;;;15.47;7.40;;;;;;;3.96;93.62;101447.37;123444;1102;104251;-79
2022/12/26 01:07:44;;;;;;;15.60;7.30;;;;;;;3.97;94.25;101463.84;123418;1102;104206;-78
2022/12/26 01:10:16;;;;;;;15.40;7.70;;;;;;;3.96;93.92;101462.95;123375;1102;104393;-79
2022/12/26 01:12:47;;;;;;;16.30;7.77;;;;;;;3.99;94.10;101466.56;123379;1102;105504;-79
2022/12/26 01:15:18;;;;;;;17.07;9.00;;;;;;;3.99;94.13;101457.10;123369;1100;104179;-79
2022/12/26 01:17:50;;;;;;;14.87;7.70;;;;;;;4.02;94.43;101459.01;123533;1102;104303;-79
2022/12/26 01:20:21;;;;;;;15.70;7.55;;;;;;;4.04;94.09;101454.86;123543;1102;104280;-78
2022/12/26 01:22:52;;;;;;;15.20;7.27;;;;;;;4.06;94.05;101464.56;123399;1102;104454;-79
2022/12/26 01:25:24;;;;;;;17.03;8.30;;;;;;;4.08;94.01;101468.20;123450;1102;104395;-79
2022/12/26 01:27:55;;;;;;;16.40;7.95;;;;;;;4.06;94.23;101463.67;123456;1102;104345;-79
2022/12/26 01:30:27;;;;;;;15.60;7.90;;;;;;;4.06;94.22;101474.95;123431;1102;104254;-79
2022/12/26 01:32:58;;;;;;;15.53;7.70;;;;;;;4.06;94.43;101472.36;123382;1102;104326;-79
2022/12/26 01:35:30;;;;;;;17.37;8.67;;;;;;;4.07;94.33;101473.28;123353;1102;104347;-78
2022/12/26 01:38:01;;;;;;;15.93;7.83;;;;;;;4.04;93.53;101479.13;123544;1100;104775;-79
2022/12/26 01:40:32;;;;;;;15.83;8.03;;;;;;;4.03;93.75;101474.71;123374;1102;104255;-79
2022/12/26 01:43:03;;;;;;;17.57;8.30;;;;;;;4.04;93.32;101481.73;123364;1102;104386;-78
2022/12/26 01:45:35;;;;;;;16.60;8.37;;;;;;;4.00;93.93;101486.56;123374;1102;104382;-78
2022/12/26 01:48:13;;;;;;;16.57;8.13;;;;;;;3.96;93.80;101488.92;123281;1102;104322;-79
2022/12/26 01:50:48;;;;;;;17.80;8.33;;;;;;;3.94;93.90;101485.31;123516;1102;104278;-79
2022/12/26 01:53:22;;;;;;;17.33;8.43;;;;;;;3.93;94.26;101488.69;123521;1102;104255;-79
2022/12/26 01:55:59;;;;;;;17.23;8.93;;;;;;;3.95;93.66;101489.70;123477;1102;104248;-79
2022/12/26 01:58:35;;;;;;;18.17;8.60;;;;;;;3.96;93.62;101494.12;123490;1102;104657;-79
2022/12/26 02:01:09;;;;;;;18.20;8.50;;;;;;;3.96;93.81;101482.84;123379;1102;104229;-79
2022/12/26 02:06:30;;;;;;;17.80;8.87;;;;;;;3.94;93.94;101481.79;123386;1100;104351;-79
2022/12/26 02:09:02;;;;;;;16.67;8.43;;;;;;;3.94;93.66;101480.12;123439;1102;104275;-78
2022/12/26 02:11:37;;;;;;;18.00;8.53;;;;;;;3.96;94.40;101477.64;123522;1102;104297;-78
2022/12/26 02:14:10;;;;;;;17.57;8.77;;;;;;;3.96;93.88;101488.92;123439;1102;107671;-78
2022/12/26 02:16:42;;;;;;;16.03;8.40;;;;;;;4.00;94.41;101492.66;123467;1102;104645;-79
2022/12/26 02:19:27;;;;;;;19.13;9.20;;;;;;;4.01;93.87;101497.08;123486;1102;104232;-79
2022/12/26 02:22:27;;;;;;;18.80;9.73;;;;;;;4.02;93.60;101492.77;123470;1102;104335;-78
2022/12/26 02:25:21;;;;;;;18.50;8.65;;;;;;;4.00;94.33;101487.46;123467;1100;117436;-77
2022/12/26 02:28:32;;;;;;;18.07;8.80;;;;;;;3.96;94.30;101486.33;123407;1101;104373;-79
2022/12/26 02:31:09;;;;;;;18.73;8.67;;;;;;;3.94;94.02;101490.51;123450;1102;104274;-79
2022/12/26 02:33:51;;;;;;;19.57;10.00;;;;;;;3.94;94.39;101486.98;123385;1100;104351;-78
2022/12/26 02:36:45;;;;;;;17.90;9.07;;;;;;;3.92;93.39;101489.46;123395;1102;104223;-79
2022/12/26 02:39:30;;;;;;;18.87;9.27;;;;;;;3.91;94.00;101495.45;123399;1102;104367;-79
2022/12/26 02:42:10;;;;;;;19.67;9.37;;;;;;;3.91;94.00;101499.72;123427;1102;104382;-78
2022/12/26 02:47:48;;;;;;;21.07;10.03;;;;;;;3.92;93.74;101512.83;123400;1102;104342;-78
2022/12/26 03:13:32;;;;;;;21.03;10.10;;;;;;;3.85;93.82;101475.88;123392;1099;104274;-79
2022/12/26 03:19:00;;;;;;;18.93;9.73;;;;;;;3.88;93.68;101482.23;123419;1099;104239;-79
2022/12/26 03:21:35;;;;;;;21.13;10.53;;;;;;;3.88;93.83;101478.71;123378;1101;104319;-79
2022/12/26 03:24:10;;;;;;;20.77;10.27;;;;;;;3.86;93.70;101470.80;123341;1099;104811;-79
2022/12/26 03:26:48;;;;;;;20.37;10.40;;;;;;;3.87;93.91;101470.03;123404;1099;104274;-78
2022/12/26 03:32:12;;;;;;;20.40;10.23;;;;;;;3.87;93.29;101470.03;123336;1099;104274;-79
2022/12/26 03:34:45;;;;;;;20.70;9.93;;;;;;;3.88;94.30;101478.71;123331;1099;104271;-78
2022/12/26 03:37:51;;;;;;;20.43;9.97;;;;;;;3.89;93.28;101478.83;123391;1099;104367;-79
2022/12/26 04:44:49;;;;;;;26.35;12.60;;;;;;;3.70;93.87;101532.70;123611;1099;104271;-79
2022/12/26 04:47:21;;;;;;;23.43;11.40;;;;;;;3.71;94.46;101542.28;123470;1099;104364;-78
2022/12/26 04:52:57;;;;;;;27.20;13.60;;;;;;;3.65;94.06;101537.53;123502;1099;104272;-79
2022/12/26 04:55:30;;;;;;;26.60;13.20;;;;;;;3.69;93.90;101531.77;123430;1099;104232;-80
2022/12/26 04:58:02;;;;;;;26.90;13.47;;;;;;;3.74;94.23;101532.14;123510;1099;104283;-79
2022/12/26 05:00:33;;;;;;;28.00;13.60;;;;;;;3.75;93.41;101531.38;123425;1099;104383;-78
2022/12/26 05:11:35;;;;;;;26.90;14.20;;;;;;;3.77;93.74;101516.81;123225;1099;104223;-79
2022/12/26 05:14:06;;;;;;;27.87;14.38;;;;;;;3.77;94.05;101525.53;123293;1099;104201;-78
2022/12/26 05:30:43;;;;;;;28.03;15.03;;;;;;;3.77;93.63;101547.97;123293;1100;104390;-79
2022/12/26 05:36:03;;;;;;;34.33;17.33;;;;;;;3.77;94.36;101541.11;123492;1099;104345;-79
2022/12/26 05:38:35;;;;;;;35.47;17.43;;;;;;;3.77;93.62;101538.52;123492;1099;104252;-79
2022/12/26 05:41:06;;;;;;;36.50;19.37;;;;;;;3.76;93.52;101543.58;123659;1099;104300;-79
2022/12/26 05:43:38;;;;;;;37.47;19.60;;;;;;;3.75;93.28;101540.05;123810;1099;104316;-79
2022/12/26 05:46:09;;;;;;;40.73;20.50;;;;;;;3.78;94.25;101539.41;123766;1099;104274;-79
2022/12/26 05:48:40;;;;;;;37.43;19.37;;;;;;;3.74;93.99;101532.14;123716;1099;104645;-80
2022/12/26 05:51:11;;;;;;;32.63;16.80;;;;;;;3.73;93.99;101528.66;123563;1099;104363;-78
2022/12/26 05:53:43;;;;;;;31.70;15.43;;;;;;;3.68;94.12;101542.07;123749;1099;104357;-77
2022/12/26 05:56:18;;;;;;;29.10;14.37;;;;;;;3.64;93.92;101553.88;123606;1101;104424;-79
2022/12/26 05:58:56;;;;;;;27.00;13.07;;;;;;;3.62;93.87;101564.94;123722;1099;104268;-79
2022/12/26 06:01:29;;;;;;;24.77;12.13;;;;;;;3.64;94.14;101566.85;123623;1099;104272;-78
2022/12/26 06:04:01;;;;;;;22.90;11.67;;;;;;;3.66;94.07;101580.89;123650;1099;104258;-79
2022/12/26 06:06:33;;;;;;;23.60;11.90;;;;;;;3.67;93.40;101582.67;123979;1099;104200;-77
2022/12/26 06:09:04;;;;;;;26.00;12.60;;;;;;;3.71;94.17;101586.41;124033;1099;104245;-79
2022/12/26 06:11:36;;;;;;;26.37;12.90;;;;;;;3.78;94.90;101583.54;123807;1100;104347;-77
2022/12/26 06:14:08;;;;;;;27.07;12.93;;;;;;;3.86;94.33;101579.86;123937;1099;104321;-79
2022/12/26 06:16:42;;;;;;;28.43;12.80;;;;;;;3.88;93.54;101578.31;123926;1100;104252;-77
2022/12/26 06:19:24;;;;;;;26.50;12.80;;;;;;;3.85;94.20;101569.34;123974;1099;104271;-78
2022/12/26 06:21:55;;;;;;;25.43;11.90;;;;;;;3.81;94.06;101570.80;124191;1099;104210;-78
2022/12/26 06:24:27;;;;;;;28.23;13.80;;;;;;;3.82;94.16;101572.63;124292;1099;104219;-78
2022/12/26 06:26:58;;;;;;;24.73;12.97;;;;;;;3.87;94.49;101579.09;124146;1099;104229;-77
2022/12/26 06:29:29;;;;;;;30.70;13.70;;;;;;;3.93;94.48;101570.89;124184;1099;104171;-77
2022/12/26 06:32:00;;;;;;;27.73;13.10;;;;;;;3.91;94.01;101572.44;124142;1099;104650;-77
2022/12/26 06:34:32;;;;;;;25.23;12.57;;;;;;;3.88;93.33;101567.92;124167;1099;104322;-76
2022/12/26 06:37:04;;;;;;;26.23;13.00;;;;;;;3.92;94.14;101569.96;124527;1099;102817;-76
2022/12/26 06:39:37;;;;;;;24.90;12.87;;;;;;;3.91;93.27;101578.56;124420;1100;104171;-78
2022/12/26 06:42:08;;;;;;;24.77;12.60;;;;;;;3.93;93.43;101565.70;124318;1099;104217;-77
2022/12/26 06:44:40;;;;;;;24.13;12.40;;;;;;;4.04;94.02;101564.84;124256;1099;104254;-78
2022/12/26 06:47:11;;;;;;;28.70;15.37;;;;;;;4.17;94.17;101566.70;124146;1099;104271;-77
2022/12/26 06:49:43;;;;;;;34.30;18.95;;;;;;;4.28;94.09;101571.05;123944;1099;105635;-78
2022/12/26 06:52:14;;;;;;;36.43;19.80;;;;;;;4.38;93.94;101577.89;124168;1099;104289;-77
2022/12/26 06:54:46;;;;;;;35.70;19.97;;;;;;;4.44;94.39;101575.77;124412;1099;104348;-77
2022/12/26 06:57:17;;;;;;;26.90;13.70;;;;;;;4.50;93.76;101567.52;124467;1099;104172;-77
2022/12/26 06:59:48;;;;;;;29.33;14.40;;;;;;;4.52;94.10;101558.16;124510;1099;104243;-75
2022/12/26 07:02:20;;;;;;;30.05;15.30;;;;;;;4.50;93.91;101565.84;124636;1099;104320;-75
2022/12/26 07:04:52;;;;;;;27.63;13.93;;;;;;;4.52;94.00;101562.44;124801;1099;102947;-78
2022/12/26 07:07:23;;;;;;;27.60;14.53;;;;;;;4.54;93.66;101543.58;124489;1102;104217;-79
2022/12/26 07:09:55;;;;;;;27.93;15.17;;;;;;;4.59;94.07;101533.53;124714;1099;104172;-76
2022/12/26 07:12:26;;;;;;;28.07;14.77;;;;;;;4.62;93.71;101525.97;124612;1099;104830;-76
2022/12/26 07:15:00;;;;;;;31.13;16.47;;;;;;;4.66;93.60;101522.83;124478;1099;104372;-76
2022/12/26 07:17:32;;;;;;;29.17;15.93;;;;;;;4.74;93.84;101515.61;124619;1099;102233;-78
2022/12/26 07:20:03;;;;;;;26.00;14.30;;;;;;;4.85;93.72;101519.91;124566;1099;104255;-76
2022/12/26 07:22:35;;;;;;;28.07;14.17;;;;;;;4.98;93.90;101514.81;124640;1099;104175;-75
2022/12/26 07:25:09;;;;;;;32.30;15.20;;;;;;;5.09;93.89;101519.92;124505;1099;104225;-77
2022/12/26 07:27:42;;;;;;;26.93;14.93;;;;;;;5.20;93.96;101535.55;124886;1099;104252;-78
2022/12/26 07:30:14;;;;;;;29.93;14.47;;;;;;;5.25;94.10;101541.09;124836;1099;102807;-77
2022/12/26 07:32:46;;;;;;;34.10;14.70;;;;;;;5.27;93.37;101541.20;124710;1099;104274;-78
2022/12/26 07:35:17;;;;;;;25.60;13.67;;;;;;;5.25;93.07;101546.30;124666;1102;103876;-78
2022/12/26 07:37:49;;;;;;;27.97;14.73;;;;;;;5.28;93.86;101556.89;124718;1099;103113;-77
2022/12/26 07:40:22;;;;;;;26.40;14.70;;;;;;;5.32;93.61;101564.15;124491;1099;104252;-77
2022/12/26 07:42:55;;;;;;;28.97;13.83;;;;;;;5.37;93.56;101547.16;124620;1099;104249;-77
2022/12/26 07:45:27;;;;;;;31.23;15.32;;;;;;;5.42;93.24;101541.41;124728;1099;104188;-77
2022/12/26 07:47:59;;;;;;;26.53;14.80;;;;;;;5.48;93.66;101547.95;124527;1099;104174;-78
2022/12/26 07:50:30;;;;;;;28.13;14.77;;;;;;;5.55;93.22;101545.02;124592;1099;103161;-78
2022/12/26 07:53:02;;;;;;;29.43;15.60;;;;;;;5.63;93.40;101553.38;124340;1101;104280;-78
2022/12/26 07:55:33;;;;;;;33.13;16.17;;;;;;;5.69;93.57;101542.52;124418;1099;103016;-79
2022/12/26 07:58:04;;;;;;;28.67;14.97;;;;;;;5.74;93.65;101538.53;124553;1099;101923;-78
2022/12/26 08:00:37;;;;;;;25.60;14.40;;;;;;;5.74;93.23;101538.53;124659;1099;104245;-77
2022/12/26 08:03:09;;;;;;;26.53;15.23;;;;;;;5.76;93.19;101542.14;124520;1099;104156;-77
2022/12/26 08:05:40;;;;;;;28.50;15.65;;;;;;;5.75;92.84;101520.41;125707;1101;102396;-76
2022/12/26 08:08:12;;;;;;;31.67;18.57;;;;;;;5.76;92.77;101518.70;124573;1099;104252;-78
2022/12/26 08:10:49;;;;;;;37.90;22.43;;;;;;;5.74;92.56;101531.61;124466;1099;104431;-77
2022/12/26 08:13:27;;;;;;;39.33;22.77;;;;;;;5.75;92.46;101525.62;124495;1102;104255;-77
2022/12/26 08:16:04;;;;;;;43.63;22.83;;;;;;;5.79;92.23;101494.58;126109;1101;102805;-77
2022/12/26 08:18:35;;;;;;;36.13;21.67;;;;;;;5.81;92.46;101482.56;124914;1099;102284;-77
2022/12/26 08:21:07;;;;;;;37.97;22.13;;;;;;;5.88;92.87;101474.39;124620;1099;101923;-77
2022/12/26 08:23:39;;;;;;;39.67;22.23;;;;;;;5.90;92.55;101468.47;124530;1099;104172;-77
2022/12/26 08:26:15;;;;;;;37.67;21.70;;;;;;;5.94;92.44;101461.80;124524;1102;104409;-77
2022/12/26 08:28:46;;;;;;;36.87;22.23;;;;;;;5.94;92.32;101480.03;124544;1099;103192;-77
2022/12/26 08:31:19;;;;;;;36.03;21.63;;;;;;;5.93;91.59;101478.22;124597;1099;103067;-78
2022/12/26 08:33:50;;;;;;;36.67;20.80;;;;;;;5.94;91.68;101477.43;124604;1099;104192;-76
2022/12/26 08:36:27;;;;;;;35.57;21.13;;;;;;;6.00;91.96;101483.10;124566;1099;102398;-77
2022/12/26 08:39:00;;;;;;;35.90;19.60;;;;;;;6.04;92.16;101482.50;124537;1099;104211;-76
2022/12/26 08:41:33;;;;;;;34.15;19.20;;;;;;;6.02;92.08;101486.71;124480;1099;104254;-78
2022/12/26 08:44:05;;;;;;;33.87;18.43;;;;;;;6.01;91.81;101484.00;124369;1099;104255;-78
2022/12/26 08:46:38;;;;;;;33.33;18.70;;;;;;;6.00;91.92;101474.36;124410;1099;102690;-77
2022/12/26 08:49:10;;;;;;;30.23;18.27;;;;;;;5.99;91.93;101469.97;124721;1099;102533;-78
2022/12/26 08:51:41;;;;;;;33.83;18.70;;;;;;;6.00;92.24;101463.94;124551;1099;104250;-78
2022/12/26 08:54:13;;;;;;;30.43;16.80;;;;;;;6.02;92.32;101475.39;124650;1099;104207;-79
2022/12/26 08:56:44;;;;;;;29.67;16.17;;;;;;;6.05;91.31;101479.11;124532;1099;102626;-78
2022/12/26 08:59:16;;;;;;;27.07;14.83;;;;;;;6.05;91.49;101473.89;124766;1102;102167;-79
2022/12/26 09:01:47;;;;;;;27.00;15.23;;;;;;;6.05;91.54;101481.71;124821;1099;102458;-79
2022/12/26 09:04:27;;;;;;;28.50;15.17;;;;;;;6.04;91.72;101468.58;124606;1099;104299;-77
2022/12/26 09:06:58;;;;;;;26.93;15.07;;;;;;;6.05;91.59;101468.69;124645;1099;104097;-78
2022/12/26 09:09:32;;;;;;;28.33;15.73;;;;;;;6.06;91.67;101460.08;124794;1102;104195;-79
2022/12/26 09:12:03;;;;;;;30.90;16.13;;;;;;;6.10;91.82;101459.47;124679;1102;104214;-77
2022/12/26 09:14:37;;;;;;;35.17;16.93;;;;;;;6.14;91.35;101459.69;124570;1098;104171;-78
2022/12/26 09:17:10;;;;;;;27.30;14.40;;;;;;;6.16;91.34;101466.83;124726;1099;103107;-78
2022/12/26 09:19:42;;;;;;;26.67;15.47;;;;;;;6.14;91.14;101465.83;124675;1099;104323;-78
2022/12/26 09:25:04;;;;;;;27.43;14.80;;;;;;;6.15;91.13;101469.33;124841;1099;102978;-77
2022/12/26 09:27:41;;;;;;;27.20;15.70;;;;;;;6.18;91.46;101488.67;124704;1102;104390;-78
2022/12/26 09:30:16;;;;;;;30.80;17.00;;;;;;;6.23;91.39;101486.38;124676;1099;104338;-75
2022/12/26 09:32:49;;;;;;;31.23;17.37;;;;;;;6.26;91.23;101494.41;124524;1099;104245;-77
2022/12/26 09:35:20;;;;;;;28.67;16.27;;;;;;;6.24;90.93;101485.59;124659;1102;104274;-76
2022/12/26 09:37:52;;;;;;;29.07;15.87;;;;;;;6.19;90.89;101472.25;124674;1099;103511;-78
2022/12/26 09:40:28;;;;;;;26.67;14.73;;;;;;;6.22;91.03;101453.32;124658;1099;102106;-76
2022/12/26 09:43:09;;;;;;;25.70;14.20;;;;;;;6.23;90.81;101448.22;126861;1099;102788;-77
2022/12/26 09:45:55;;;;;;;23.83;13.37;;;;;;;6.26;90.58;101453.64;125105;1099;104246;-79
2022/12/26 09:48:33;;;;;;;24.70;13.03;;;;;;;6.26;89.89;101447.50;124594;1099;104172;-78
2022/12/26 09:51:05;;;;;;;24.30;13.65;;;;;;;6.30;90.53;101453.02;124634;1099;104293;-78
2022/12/26 09:53:42;;;;;;;23.00;12.93;;;;;;;6.36;90.33;101468.19;124934;1099;102388;-78
2022/12/26 09:56:19;;;;;;;26.87;12.83;;;;;;;6.39;90.59;101465.79;124580;1099;104360;-76
2022/12/26 09:58:55;;;;;;;23.73;12.90;;;;;;;6.38;90.24;101457.87;124506;1099;104303;-79
2022/12/26 10:01:30;;;;;;;24.13;12.23;;;;;;;6.36;90.10;101452.55;124713;1099;104131;-77
2022/12/26 10:04:04;;;;;;;24.10;12.23;;;;;;;6.39;90.59;101444.01;124715;1099;102032;-78
2022/12/26 10:06:41;;;;;;;22.10;11.67;;;;;;;6.39;90.09;101444.94;124689;1102;102493;-78
2022/12/26 10:09:36;;;;;;;25.27;12.27;;;;;;;6.40;90.11;101438.90;124731;1099;104265;-77
2022/12/26 10:12:25;;;;;;;22.13;11.93;;;;;;;6.46;90.17;101423.67;124701;1102;103285;-78
2022/12/26 10:15:02;;;;;;;22.90;11.47;;;;;;;6.54;90.50;101413.75;124628;1099;104232;-77
2022/12/26 10:17:42;;;;;;;23.10;11.23;;;;;;;6.57;90.25;101406.13;124617;1102;104618;-77
2022/12/26 10:20:27;;;;;;;22.37;11.97;;;;;;;6.55;89.51;101401.64;124744;1098;104351;-78
2022/12/26 10:23:28;;;;;;;24.60;11.97;;;;;;;6.53;89.85;101392.79;124646;1099;101973;-78
2022/12/26 10:26:10;;;;;;;21.47;11.90;;;;;;;6.52;89.10;101386.68;124507;1102;107020;-80
2022/12/26 10:28:48;;;;;;;23.43;11.93;;;;;;;6.50;88.95;101392.59;124666;1099;102455;-80
2022/12/26 10:31:26;;;;;;;22.10;11.33;;;;;;;6.48;88.41;101396.02;124730;1099;104248;-78
2022/12/26 10:34:08;;;;;;;22.00;11.00;;;;;;;6.44;88.91;101393.10;124845;1099;104214;-77
2022/12/26 10:36:46;;;;;;;21.67;10.67;;;;;;;6.44;89.08;101404.42;124791;1099;103388;-77
2022/12/26 10:39:24;;;;;;;20.50;10.97;;;;;;;6.48;89.41;101405.52;124682;1102;104315;-77
2022/12/26 10:42:00;;;;;;;19.50;10.50;;;;;;;6.52;89.27;101404.05;125036;1099;102490;-77
2022/12/26 10:44:31;;;;;;;20.80;10.30;;;;;;;6.53;89.46;101411.97;124580;1102;102547;-77
2022/12/26 10:47:21;;;;;;;18.67;10.30;;;;;;;6.54;88.95;101410.25;124928;1099;104111;-77
2022/12/26 10:49:52;;;;;;;19.60;10.37;;;;;;;6.59;89.19;101411.45;125041;1099;104108;-78
2022/12/26 10:52:31;;;;;;;19.63;10.30;;;;;;;6.65;89.43;101409.25;124898;1102;103545;-79
2022/12/26 10:55:05;;;;;;;19.03;9.77;;;;;;;6.72;89.21;101403.64;124716;1099;104236;-79
2022/12/26 10:57:40;;;;;;;19.40;10.08;;;;;;;6.80;89.33;101415.48;124715;1099;104204;-77
2022/12/26 11:00:21;;;;;;;20.13;9.97;;;;;;;6.88;89.44;101404.65;124858;1099;104179;-77
2022/12/26 11:03:06;;;;;;;17.83;9.50;;;;;;;6.94;88.93;101408.55;124750;1099;104223;-79
2022/12/26 11:05:43;;;;;;;18.73;9.17;;;;;;;6.97;88.69;101410.47;124865;1099;104360;-78
2022/12/26 11:08:23;;;;;;;16.23;8.43;;;;;;;7.01;88.43;101415.06;124781;1099;104245;-78
2022/12/26 11:11:06;;;;;;;17.57;8.60;;;;;;;7.03;88.73;101413.47;124775;1102;104221;-78
2022/12/26 11:13:39;;;;;;;;;;;;;;;7.09;86.96;101413.87;125051;1100;103261;-78
2022/12/26 11:16:11;;;;;;;16.73;8.50;;;;;;;7.10;87.74;101404.33;124928;1099;104165;-77
2022/12/26 11:18:50;;;;;;;17.00;8.47;;;;;;;7.12;87.63;101402.70;124789;1099;104280;-78
2022/12/26 11:21:26;;;;;;;16.27;8.23;;;;;;;7.10;88.30;101394.77;124802;1099;101893;-79
2022/12/26 11:24:19;;;;;;;19.43;8.73;;;;;;;7.07;87.79;101394.58;126042;1099;102675;-79
2022/12/26 11:26:52;;;;;;;15.37;7.90;;;;;;;7.06;87.79;101395.41;126180;1099;101884;-78
2022/12/26 11:29:28;;;;;;;17.13;8.57;;;;;;;7.06;87.42;101390.19;125973;1099;102294;-77
2022/12/26 11:32:02;;;;;;;16.63;8.77;;;;;;;7.06;87.23;101377.13;126006;1099;102510;-76
2022/12/26 11:34:35;;;;;;;;;;;;;;;7.02;86.11;101376.02;126056;1099;101442;-77
2022/12/26 11:37:07;;;;;;;18.53;9.30;;;;;;;7.01;87.06;101392.50;125985;1099;102302;-76
2022/12/26 11:39:40;;;;;;;21.37;10.00;;;;;;;7.03;87.83;101387.38;126015;1101;101912;-77
2022/12/26 11:42:18;;;;;;;18.57;9.63;;;;;;;7.08;87.67;101379.84;126074;1098;105986;-77
2022/12/26 11:44:54;;;;;;;21.10;9.33;;;;;;;7.12;87.54;101371.38;126079;1099;101531;-75
2022/12/26 11:47:29;;;;;;;17.03;9.10;;;;;;;7.17;87.85;101357.83;126038;1099;101864;-75
2022/12/26 11:50:04;;;;;;;16.77;9.00;;;;;;;7.19;87.61;101353.59;126184;1099;102726;-76
2022/12/26 11:52:43;;;;;;;18.03;8.67;;;;;;;7.24;87.58;101340.84;126147;1099;102794;-77
2022/12/26 11:55:30;;;;;;;17.93;8.57;;;;;;;7.20;86.75;101338.86;124844;1099;102940;-77
2022/12/26 11:58:14;;;;;;;14.57;7.50;;;;;;;7.11;86.23;101318.29;124659;1098;107972;-77
2022/12/26 12:01:05;;;;;;;15.20;7.67;;;;;;;7.03;85.92;101319.53;124741;1099;104372;-78
2022/12/26 12:03:40;;;;;;;13.83;7.30;;;;;;;7.06;85.69;101329.23;124780;1099;104284;-79
2022/12/26 12:06:34;;;;;;;13.20;6.53;;;;;;;7.07;86.43;101334.55;124596;1099;104335;-77
2022/12/26 12:09:14;;;;;;;15.97;7.20;;;;;;;7.06;86.16;101322.33;124678;1099;104735;-76
2022/12/26 12:11:56;;;;;;;14.13;6.93;;;;;;;7.02;85.91;101321.21;124748;1099;103176;-75
2022/12/26 12:14:42;;;;;;;13.30;6.40;;;;;;;6.98;85.97;101321.84;124771;1099;104223;-75
2022/12/26 12:17:28;;;;;;;13.03;6.40;;;;;;;6.95;86.11;101320.73;124615;1099;103189;-75
2022/12/26 12:20:39;;;;;;;13.75;6.25;;;;;;;6.93;86.26;101325.84;124675;1099;104252;-76
2022/12/26 12:23:29;;;;;;;12.53;5.47;;;;;;;6.96;86.36;101343.41;124674;1099;103645;-74
2022/12/26 12:26:10;;;;;;;7.87;4.73;;;;;;;6.90;85.15;101359.57;124657;1100;104194;-76
2022/12/26 12:29:02;;;;;;;8.97;5.10;;;;;;;6.89;85.95;101368.22;124620;1099;104261;-75
2022/12/26 12:31:47;;;;;;;9.87;4.90;;;;;;;6.87;85.65;101379.35;124784;1099;104185;-75
2022/12/26 12:34:27;;;;;;;10.07;5.37;;;;;;;6.84;85.96;101370.53;124734;1102;102657;-76
2022/12/26 12:37:13;;;;;;;10.17;5.10;;;;;;;6.80;85.52;101358.09;124599;1102;104456;-75
2022/12/26 12:39:54;;;;;;;9.23;4.90;;;;;;;6.72;84.66;101342.77;124579;1099;104339;-76
2022/12/26 12:42:47;;;;;;;10.67;5.53;;;;;;;6.63;85.54;101336.13;124868;1099;104201;-76
2022/12/26 12:45:31;;;;;;;12.40;5.73;;;;;;;6.57;85.40;101327.02;125095;1102;104233;-76
2022/12/26 12:48:20;;;;;;;12.18;6.17;;;;;;;6.48;85.25;101314.27;125090;1099;101935;-76
2022/12/26 12:51:10;;;;;;;17.17;7.10;;;;;;;6.44;85.46;101314.89;125083;1099;104283;-76
2022/12/26 12:54:11;;;;;;;16.13;7.03;;;;;;;6.40;85.63;101320.69;125004;1102;103008;-77
2022/12/26 12:57:00;;;;;;;13.23;6.50;;;;;;;6.35;85.44;101315.17;125522;1099;104237;-78
2022/12/26 12:59:42;;;;;;;15.13;6.97;;;;;;;6.34;85.58;101317.68;125190;1102;110346;-77
2022/12/26 13:02:21;;;;;;;13.22;6.50;;;;;;;6.34;85.22;101302.93;125155;1099;102480;-75
2022/12/26 13:05:04;;;;;;;15.03;6.83;;;;;;;6.36;85.53;101300.42;125211;1102;104223;-76
2022/12/26 13:07:40;;;;;;;13.70;6.80;;;;;;;6.42;85.66;101306.04;124745;1099;104344;-75
2022/12/26 13:10:22;;;;;;;13.80;6.93;;;;;;;6.43;85.66;101313.07;124442;1102;104383;-76
2022/12/26 13:12:56;;;;;;;14.50;7.27;;;;;;;6.42;85.40;101306.97;124544;1100;104220;-77
2022/12/26 13:15:37;;;;;;;15.55;7.25;;;;;;;6.43;85.74;101287.89;124573;1103;103661;-76
2022/12/26 13:18:15;;;;;;;16.93;7.60;;;;;;;6.42;84.71;101280.89;126086;1099;101991;-76
2022/12/26 13:21:00;;;;;;;15.10;8.03;;;;;;;6.34;84.49;101276.86;125981;1099;102060;-77
2022/12/26 13:26:29;;;;;;;17.70;8.53;;;;;;;6.21;84.97;101295.13;126080;1099;102641;-77
2022/12/26 13:29:06;;;;;;;17.40;8.00;;;;;;;6.19;85.04;101299.34;126138;1099;101818;-78
2022/12/26 13:31:39;;;;;;;17.37;8.90;;;;;;;6.17;84.74;101294.03;126393;1099;102350;-78
2022/12/26 13:34:15;;;;;;;16.30;8.23;;;;;;;6.17;85.10;101294.03;126017;1102;102518;-78
2022/12/26 13:36:49;;;;;;;16.53;8.17;;;;;;;6.21;85.16;101297.73;126182;1099;101861;-77
2022/12/26 13:39:42;;;;;;;17.02;8.23;;;;;;;6.23;85.34;101301.33;126118;1098;102753;-76
2022/12/26 13:45:47;;;;;;;15.97;8.27;;;;;;;6.26;85.12;101299.86;126075;1099;101829;-74
2022/12/26 13:48:56;;;;;;;20.63;8.87;;;;;;;6.23;84.94;101294.44;124631;1099;104242;-76
2022/12/26 13:51:55;;;;;;;18.20;9.33;;;;;;;6.17;84.93;101287.89;124486;1099;104248;-73
2022/12/26 13:54:28;;;;;;;18.43;9.63;;;;;;;6.14;84.98;101293.83;124300;1099;104245;-74
2022/12/26 13:57:27;;;;;;;18.80;10.25;;;;;;;6.14;85.12;101299.04;124704;1099;104172;-78
2022/12/26 14:00:18;;;;;;;18.83;10.00;;;;;;;6.10;85.03;101282.28;124573;1099;103453;-76
2022/12/26 14:03:23;;;;;;;20.63;9.80;;;;;;;6.08;85.25;101281.28;124540;1099;104254;-74
2022/12/26 14:06:20;;;;;;;20.07;10.03;;;;;;;6.05;84.95;101286.30;124660;1099;104254;-76